createdAt,value
2019-02-24T00:01:34.865Z,1.78
2019-02-24T00:04:07.599Z,1.72
2019-02-24T00:06:40.483Z,1.78
2019-02-24T00:09:13.494Z,1.82
2019-02-24T00:11:46.225Z,1.89
2019-02-24T00:14:18.983Z,1.77
2019-02-24T00:16:51.759Z,1.74
2019-02-24T00:19:24.543Z,1.72
2019-02-24T00:21:57.315Z,1.68
2019-02-24T00:24:30.016Z,1.44
2019-02-24T00:27:02.792Z,1.49
2019-02-24T00:29:35.512Z,1.39
2019-02-24T00:32:08.283Z,1.23
2019-02-24T00:34:40.931Z,1.22
2019-02-24T00:37:13.730Z,1.07
2019-02-24T00:39:46.324Z,0.66
2019-02-24T00:42:19.068Z,0.52
2019-02-24T00:44:51.865Z,0.84
2019-02-24T00:47:24.666Z,0.69
2019-02-24T00:49:57.343Z,0.67
2019-02-24T00:52:30.055Z,0.69
2019-02-24T00:55:02.685Z,0.39
2019-02-24T00:57:35.335Z,0.24
2019-02-24T01:00:09.637Z,0.24
2019-02-24T01:02:42.527Z,0.37
2019-02-24T01:05:15.262Z,0.53
2019-02-24T01:07:48.033Z,0.36
2019-02-24T01:10:20.751Z,0.17
2019-02-24T01:12:53.694Z,0.25
2019-02-24T01:15:26.520Z,0.59
2019-02-24T01:17:59.322Z,0.06
2019-02-24T01:20:32.111Z,-0.20
2019-02-24T01:23:04.852Z,-0.43
2019-02-24T01:25:37.552Z,-0.48
2019-02-24T01:28:10.249Z,-0.60
2019-02-24T01:30:42.941Z,-0.85
2019-02-24T01:33:15.683Z,-0.71
2019-02-24T01:35:48.558Z,-0.60
2019-02-24T01:38:21.291Z,-0.82
2019-02-24T01:40:54.004Z,-1.00
2019-02-24T01:43:26.861Z,-1.00
2019-02-24T01:45:59.567Z,-1.10
2019-02-24T01:48:32.361Z,-1.28
2019-02-24T01:51:05.312Z,-1.30
2019-02-24T01:53:38.042Z,-1.40
2019-02-24T01:56:10.885Z,-1.51
2019-02-24T01:58:46.054Z,-1.36
2019-02-24T02:01:18.878Z,-1.63
2019-02-24T02:03:51.620Z,-1.69
2019-02-24T02:06:24.375Z,-1.90
2019-02-24T02:08:57.182Z,-1.87
2019-02-24T02:11:29.891Z,-1.71
2019-02-24T02:14:02.649Z,-1.94
2019-02-24T02:16:35.556Z,-1.86
2019-02-24T02:19:08.235Z,-1.84
2019-02-24T02:21:41.061Z,-1.92
2019-02-24T02:24:13.858Z,-2.06
2019-02-24T02:26:46.587Z,-2.11
2019-02-24T02:29:19.355Z,-2.03
2019-02-24T02:31:52.258Z,-1.22
2019-02-24T02:34:25.030Z,-1.43
2019-02-24T02:36:57.773Z,-1.62
2019-02-24T02:39:30.479Z,-1.55
2019-02-24T02:42:03.276Z,-1.67
2019-02-24T02:44:36.086Z,-1.69
2019-02-24T02:47:11.627Z,-1.77
2019-02-24T02:49:44.388Z,-1.86
2019-02-24T02:52:17.083Z,-2.04
2019-02-24T02:54:49.840Z,-2.14
2019-02-24T02:57:22.527Z,-2.13
2019-02-24T02:59:55.337Z,-2.10
2019-02-24T03:02:27.999Z,-2.10
2019-02-24T03:05:00.750Z,-2.10
2019-02-24T03:07:41.564Z,-2.21
2019-02-24T03:10:14.381Z,-2.47
2019-02-24T03:12:47.134Z,-2.50
2019-02-24T03:15:19.871Z,-2.54
2019-02-24T03:17:52.591Z,-2.69
2019-02-24T03:20:25.331Z,-2.71
2019-02-24T03:22:58.418Z,-2.75
2019-02-24T03:25:31.128Z,-2.54
2019-02-24T03:28:03.950Z,-2.39
2019-02-24T03:30:36.609Z,-2.25
2019-02-24T03:33:09.751Z,-2.22
2019-02-24T03:35:42.450Z,-2.42
2019-02-24T03:38:15.296Z,-2.59
2019-02-24T03:40:48.133Z,-2.65
2019-02-24T03:43:20.944Z,-2.59
2019-02-24T03:45:54.114Z,-2.33
2019-02-24T03:48:26.527Z,-2.39
2019-02-24T03:50:59.238Z,-2.45
2019-02-24T03:53:32.173Z,-2.36
2019-02-24T03:56:05.700Z,-2.39
2019-02-24T03:58:38.449Z,-2.44
2019-02-24T04:01:11.156Z,-2.56
2019-02-24T04:03:43.899Z,-2.47
2019-02-24T04:06:16.667Z,-2.47
2019-02-24T04:08:49.514Z,-2.38
2019-02-24T04:11:22.304Z,-2.29
2019-02-24T04:13:55.114Z,-2.37
2019-02-24T04:16:27.917Z,-2.31
2019-02-24T04:19:00.792Z,-2.21
2019-02-24T04:21:33.565Z,-2.21
2019-02-24T04:24:06.502Z,-2.18
2019-02-24T04:26:39.197Z,-2.27
2019-02-24T04:29:11.989Z,-2.48
2019-02-24T04:31:44.658Z,-2.44
2019-02-24T04:34:16.636Z,-2.65
2019-02-24T04:36:49.404Z,-2.55
2019-02-24T04:39:22.097Z,-2.57
2019-02-24T04:41:54.845Z,-2.59
2019-02-24T04:44:27.649Z,-2.64
2019-02-24T04:47:00.331Z,-2.68
2019-02-24T04:49:33.180Z,-2.64
2019-02-24T04:52:06.071Z,-2.69
2019-02-24T04:54:38.751Z,-2.58
2019-02-24T04:57:11.613Z,-2.43
2019-02-24T04:59:44.379Z,-2.44
2019-02-24T05:02:17.214Z,-2.46
2019-02-24T05:04:50.273Z,-2.66
2019-02-24T05:07:23.015Z,-2.73
2019-02-24T05:09:55.731Z,-2.52
2019-02-24T05:12:28.388Z,-2.62
2019-02-24T05:15:01.098Z,-2.84
2019-02-24T05:17:33.851Z,-2.80
2019-02-24T05:20:07.503Z,-3.20
2019-02-24T05:22:40.207Z,-3.17
2019-02-24T05:25:13.014Z,-2.91
2019-02-24T05:27:45.749Z,-2.75
2019-02-24T05:30:18.522Z,-2.87
2019-02-24T05:32:51.395Z,-2.96
2019-02-24T05:35:24.062Z,-3.01
2019-02-24T05:37:56.807Z,-3.11
2019-02-24T05:40:29.425Z,-3.07
2019-02-24T05:43:02.097Z,-2.95
2019-02-24T05:45:34.827Z,-3.12
2019-02-24T05:48:07.883Z,-3.08
2019-02-24T05:50:40.557Z,-3.05
2019-02-24T05:53:13.269Z,-3.05
2019-02-24T05:55:46.008Z,-3.01
2019-02-24T05:58:18.662Z,-2.99
2019-02-24T06:00:51.456Z,-2.84
2019-02-24T06:03:24.105Z,-2.84
2019-02-24T06:05:56.921Z,-3.02
2019-02-24T06:08:29.718Z,-2.66
2019-02-24T06:11:02.389Z,-2.62
2019-02-24T06:13:35.174Z,-2.72
2019-02-24T06:16:07.841Z,-2.93
2019-02-24T06:18:40.600Z,-2.70
2019-02-24T06:21:13.304Z,-2.35
2019-02-24T06:23:46.045Z,-2.28
2019-02-24T06:26:18.867Z,-2.27
2019-02-24T06:28:51.541Z,-2.71
2019-02-24T06:31:24.281Z,-2.85
2019-02-24T06:33:57.082Z,-2.98
2019-02-24T06:36:29.937Z,-2.90
2019-02-24T06:39:02.847Z,-2.94
2019-02-24T06:41:35.591Z,-3.10
2019-02-24T06:44:08.292Z,-2.83
2019-02-24T06:46:41.037Z,-2.06
2019-02-24T06:49:13.701Z,-2.24
2019-02-24T06:51:46.384Z,-2.07
2019-02-24T06:54:19.179Z,-2.10
2019-02-24T06:56:51.952Z,-2.09
2019-02-24T06:59:24.937Z,-2.16
2019-02-24T07:01:56.816Z,-2.02
2019-02-24T07:04:29.645Z,-2.02
2019-02-24T07:07:02.422Z,-2.11
2019-02-24T07:09:35.269Z,-1.75
2019-02-24T07:12:08.186Z,-0.84
2019-02-24T07:14:41.015Z,-0.36
2019-02-24T07:17:13.747Z,0.08
2019-02-24T07:19:46.591Z,0.70
2019-02-24T07:22:19.501Z,0.45
2019-02-24T07:24:52.196Z,0.03
2019-02-24T07:27:24.984Z,-0.73
2019-02-24T07:29:57.658Z,-0.82
2019-02-24T07:32:30.565Z,-1.00
2019-02-24T07:35:02.504Z,-0.92
2019-02-24T07:37:35.258Z,-0.71
2019-02-24T07:40:07.998Z,-0.20
2019-02-24T07:42:40.690Z,0.17
2019-02-24T07:45:13.485Z,0.52
2019-02-24T07:47:46.223Z,0.86
2019-02-24T07:50:18.989Z,1.43
2019-02-24T07:52:51.691Z,1.84
2019-02-24T07:55:24.378Z,1.95
2019-02-24T07:57:57.033Z,1.97
2019-02-24T08:00:32.250Z,1.77
2019-02-24T08:03:04.147Z,1.77
2019-02-24T08:05:36.855Z,2.43
2019-02-24T08:08:16.189Z,3.74
2019-02-24T08:10:44.071Z,4.72
2019-02-24T08:13:16.898Z,6.06
2019-02-24T08:15:49.565Z,6.21
2019-02-24T08:18:22.240Z,6.65
2019-02-24T08:20:54.996Z,6.79
2019-02-24T08:23:27.861Z,7.14
2019-02-24T08:26:00.597Z,7.46
2019-02-24T08:28:33.442Z,7.97
2019-02-24T08:31:06.209Z,8.63
2019-02-24T08:33:39.056Z,9.37
2019-02-24T08:36:11.844Z,9.95
2019-02-24T08:38:44.581Z,9.88
2019-02-24T08:41:17.387Z,9.79
2019-02-24T08:43:50.210Z,9.76
2019-02-24T08:46:22.933Z,10.03
2019-02-24T08:48:55.618Z,9.88
2019-02-24T08:51:28.294Z,10.32
2019-02-24T08:54:01.095Z,10.68
2019-02-24T08:56:33.859Z,11.07
2019-02-24T08:59:06.712Z,10.26
2019-02-24T09:01:39.488Z,9.31
2019-02-24T09:04:12.342Z,9.21
2019-02-24T09:06:45.137Z,10.09
2019-02-24T09:09:18.013Z,11.48
2019-02-24T09:11:50.857Z,11.34
2019-02-24T09:14:23.663Z,12.60
2019-02-24T09:16:56.542Z,12.14
2019-02-24T09:19:29.518Z,12.56
2019-02-24T09:22:02.530Z,12.39
2019-02-24T09:24:35.372Z,13.27
2019-02-24T09:27:08.135Z,13.38
2019-02-24T09:29:41.016Z,12.41
2019-02-24T09:32:13.995Z,13.15
2019-02-24T09:34:46.394Z,12.68
2019-02-24T09:37:19.236Z,12.14
2019-02-24T09:39:52.019Z,12.33
2019-02-24T09:42:24.840Z,12.62
2019-02-24T09:44:57.768Z,12.45
2019-02-24T09:47:30.429Z,12.60
2019-02-24T09:50:03.337Z,12.21
2019-02-24T09:52:36.154Z,13.21
2019-02-24T09:55:10.529Z,13.18
2019-02-24T09:57:43.390Z,14.04
2019-02-24T10:00:17.204Z,14.31
2019-02-24T10:02:49.940Z,14.07
2019-02-24T10:05:22.699Z,14.85
2019-02-24T10:07:55.557Z,14.68
2019-02-24T10:10:28.461Z,13.99
2019-02-24T10:13:01.214Z,13.85
2019-02-24T10:15:34.071Z,14.56
2019-02-24T10:18:06.859Z,15.51
2019-02-24T10:20:39.681Z,15.22
2019-02-24T10:23:12.520Z,15.60
2019-02-24T10:25:45.374Z,15.25
2019-02-24T10:28:18.284Z,13.87
2019-02-24T10:30:51.192Z,14.82
2019-02-24T10:33:24.060Z,15.77
2019-02-24T10:35:56.815Z,15.49
2019-02-24T10:38:29.723Z,15.44
2019-02-24T10:41:02.501Z,15.94
2019-02-24T10:43:35.278Z,14.85
2019-02-24T10:46:08.232Z,14.92
2019-02-24T10:48:41.454Z,14.81
2019-02-24T10:51:14.224Z,14.49
2019-02-24T10:53:47.017Z,14.19
2019-02-24T10:56:20.374Z,14.91
2019-02-24T10:58:53.271Z,13.53
2019-02-24T11:01:29.741Z,12.74
2019-02-24T11:03:59.976Z,13.24
2019-02-24T11:06:32.835Z,14.01
2019-02-24T11:09:07.535Z,14.54
2019-02-24T11:11:40.452Z,14.95
2019-02-24T11:14:13.282Z,15.16
2019-02-24T11:16:46.116Z,15.01
2019-02-24T11:19:18.872Z,14.92
2019-02-24T11:21:51.738Z,14.32
2019-02-24T11:24:24.472Z,13.56
2019-02-24T11:26:57.255Z,13.92
2019-02-24T11:29:30.093Z,12.88
2019-02-24T11:32:02.954Z,13.63
2019-02-24T11:34:35.696Z,13.41
2019-02-24T11:37:08.521Z,13.67
2019-02-24T11:39:41.413Z,13.35
2019-02-24T11:42:14.309Z,13.07
2019-02-24T11:44:47.029Z,13.17
2019-02-24T11:47:19.848Z,13.32
2019-02-24T11:49:52.711Z,13.59
2019-02-24T11:52:25.436Z,14.45
2019-02-24T11:54:57.454Z,15.55
2019-02-24T11:57:30.157Z,16.13
2019-02-24T12:00:02.951Z,16.76
2019-02-24T12:02:35.902Z,16.24
2019-02-24T12:05:08.945Z,16.55
2019-02-24T12:07:41.671Z,16.12
2019-02-24T12:10:15.806Z,16.69
2019-02-24T12:12:48.497Z,17.51
2019-02-24T12:15:21.333Z,17.76
2019-02-24T12:17:54.178Z,17.30
2019-02-24T12:20:27.035Z,18.29
2019-02-24T12:22:59.824Z,18.13
2019-02-24T12:25:32.702Z,17.78
2019-02-24T12:28:05.831Z,16.31
2019-02-24T12:30:38.861Z,16.87
2019-02-24T12:33:11.732Z,16.65
2019-02-24T12:35:44.571Z,16.74
2019-02-24T12:38:17.417Z,16.47
2019-02-24T12:40:50.239Z,16.93
2019-02-24T12:43:23.011Z,16.03
2019-02-24T12:45:55.973Z,16.76
2019-02-24T12:48:31.428Z,16.65
2019-02-24T12:51:04.193Z,16.43
2019-02-24T12:53:37.037Z,16.38
2019-02-24T12:56:09.793Z,15.95
2019-02-24T12:58:42.618Z,16.38
2019-02-24T13:01:15.424Z,16.74
2019-02-24T13:03:48.233Z,17.16
2019-02-24T13:06:20.949Z,17.31
2019-02-24T13:08:53.691Z,17.37
2019-02-24T13:11:26.564Z,16.80
2019-02-24T13:13:59.365Z,16.65
2019-02-24T13:16:32.527Z,16.22
2019-02-24T13:19:05.428Z,16.31
2019-02-24T13:21:38.130Z,15.40
2019-02-24T13:24:11.037Z,15.66
2019-02-24T13:26:43.847Z,15.65
2019-02-24T13:29:16.628Z,16.03
2019-02-24T13:31:49.422Z,15.95
2019-02-24T13:34:22.293Z,15.88
2019-02-24T13:36:55.257Z,14.88
2019-02-24T13:39:28.115Z,15.28
2019-02-24T13:42:00.827Z,15.08
2019-02-24T13:44:33.643Z,14.47
2019-02-24T13:47:06.490Z,14.58
2019-02-24T13:49:39.287Z,14.31
2019-02-24T13:52:12.040Z,14.13
2019-02-24T13:54:44.803Z,14.15
2019-02-24T13:57:17.575Z,14.35
2019-02-24T13:59:50.363Z,13.77
2019-02-24T14:02:24.287Z,13.26
2019-02-24T14:04:57.183Z,13.56
2019-02-24T14:07:29.995Z,13.80
2019-02-24T14:10:02.717Z,13.78
2019-02-24T14:12:35.604Z,13.44
2019-02-24T14:15:09.589Z,13.47
2019-02-24T14:17:42.548Z,13.21
2019-02-24T14:20:15.350Z,13.10
2019-02-24T14:22:48.659Z,13.26
2019-02-24T14:25:21.428Z,13.35
2019-02-24T14:27:54.210Z,13.22
2019-02-24T14:30:27.088Z,13.40
2019-02-24T14:32:59.947Z,13.77
2019-02-24T14:35:32.819Z,13.54
2019-02-24T14:38:05.698Z,13.12
2019-02-24T14:40:38.537Z,13.19
2019-02-24T14:43:11.302Z,13.07
2019-02-24T14:45:49.673Z,13.08
2019-02-24T14:48:18.602Z,12.91
2019-02-24T14:50:51.455Z,12.74
2019-02-24T14:53:24.339Z,12.69
2019-02-24T14:55:57.204Z,12.91
2019-02-24T14:58:30.121Z,12.28
2019-02-24T15:01:03.001Z,12.41
2019-02-24T15:03:36.240Z,12.63
2019-02-24T15:06:09.045Z,12.25
2019-02-24T15:08:42.002Z,12.32
2019-02-24T15:11:14.836Z,12.34
2019-02-24T15:13:47.557Z,12.19
2019-02-24T15:16:20.339Z,11.96
2019-02-24T15:18:53.083Z,11.84
2019-02-24T15:21:25.812Z,11.61
2019-02-24T15:23:58.589Z,11.65
2019-02-24T15:26:31.351Z,11.41
2019-02-24T15:29:04.110Z,11.67
2019-02-24T15:31:37.500Z,11.51
2019-02-24T15:34:10.254Z,11.35
2019-02-24T15:36:43.002Z,10.97
2019-02-24T15:39:15.725Z,11.05
2019-02-24T15:41:48.630Z,11.00
2019-02-24T15:44:21.360Z,10.80
2019-02-24T15:46:54.273Z,10.58
2019-02-24T15:49:26.895Z,10.45
2019-02-24T15:51:59.592Z,10.33
2019-02-24T15:54:32.318Z,10.23
2019-02-24T15:57:05.744Z,10.33
2019-02-24T15:59:56.701Z,10.44
2019-02-24T16:02:29.628Z,10.45
2019-02-24T16:05:02.432Z,10.45
2019-02-24T16:07:35.216Z,10.27
2019-02-24T16:10:10.758Z,10.35
2019-02-24T16:12:43.503Z,10.19
2019-02-24T16:15:17.193Z,10.08
2019-02-24T16:17:50.220Z,10.15
2019-02-24T16:20:25.302Z,10.33
2019-02-24T16:22:58.313Z,10.33
2019-02-24T16:25:31.110Z,10.48
2019-02-24T16:28:03.894Z,10.39
2019-02-24T16:30:36.802Z,10.37
2019-02-24T16:33:10.827Z,10.25
2019-02-24T16:35:44.018Z,10.10
2019-02-24T16:38:16.856Z,10.13
2019-02-24T16:40:49.674Z,10.17
2019-02-24T16:43:22.657Z,10.03
2019-02-24T16:45:57.432Z,10.09
2019-02-24T16:48:30.263Z,9.76
2019-02-24T16:51:03.005Z,9.78
2019-02-24T16:53:38.708Z,9.79
2019-02-24T16:56:11.521Z,9.60
2019-02-24T16:58:44.172Z,9.35
2019-02-24T17:01:17.141Z,9.10
2019-02-24T17:03:49.819Z,9.02
2019-02-24T17:06:22.486Z,8.77
2019-02-24T17:09:00.258Z,8.45
2019-02-24T17:11:29.507Z,8.01
2019-02-24T17:14:02.263Z,8.00
2019-02-24T17:16:34.899Z,8.42
2019-02-24T17:19:07.574Z,8.06
2019-02-24T17:21:40.311Z,7.65
2019-02-24T17:24:13.092Z,7.67
2019-02-24T17:26:45.807Z,7.74
2019-02-24T17:29:18.531Z,7.66
2019-02-24T17:31:51.107Z,7.28
2019-02-24T17:34:23.846Z,7.06
2019-02-24T17:36:56.736Z,6.77
2019-02-24T17:39:29.558Z,6.43
2019-02-24T17:42:02.221Z,5.97
2019-02-24T17:45:36.921Z,6.05
2019-02-24T17:48:10.009Z,5.67
2019-02-24T17:50:42.289Z,5.28
2019-02-24T17:53:15.019Z,5.41
2019-02-24T17:55:47.755Z,5.13
2019-02-24T17:58:20.486Z,5.14
2019-02-24T18:01:04.098Z,4.85
2019-02-24T18:03:39.589Z,4.96
2019-02-24T18:06:11.591Z,5.15
2019-02-24T18:08:44.351Z,4.66
2019-02-24T18:11:17.034Z,4.38
2019-02-24T18:13:49.817Z,4.44
2019-02-24T18:16:22.670Z,4.54
2019-02-24T18:18:55.364Z,4.54
2019-02-24T18:21:28.053Z,4.56
2019-02-24T18:24:00.796Z,4.32
2019-02-24T18:26:33.460Z,4.19
2019-02-24T18:29:06.263Z,4.29
2019-02-24T18:31:39.009Z,4.27
2019-02-24T18:34:12.026Z,4.75
2019-02-24T18:36:44.774Z,5.46
2019-02-24T18:39:17.524Z,5.26
2019-02-24T18:41:50.359Z,4.99
2019-02-24T18:44:23.148Z,5.40
2019-02-24T18:46:55.850Z,5.92
2019-02-24T18:49:28.517Z,6.35
2019-02-24T18:52:01.283Z,7.30
2019-02-24T18:54:34.909Z,7.35
2019-02-24T18:57:08.054Z,7.40
2019-02-24T18:59:40.878Z,7.39
2019-02-24T19:02:13.934Z,7.32
2019-02-24T19:04:46.657Z,7.65
2019-02-24T19:07:19.380Z,7.36
2019-02-24T19:09:52.222Z,7.11
2019-02-24T19:12:24.931Z,6.91
2019-02-24T19:14:57.751Z,6.80
2019-02-24T19:17:30.443Z,6.80
2019-02-24T19:20:07.424Z,6.66
2019-02-24T19:22:40.183Z,6.54
2019-02-24T19:25:13.727Z,6.28
2019-02-24T19:27:46.406Z,6.07
2019-02-24T19:30:19.282Z,5.71
2019-02-24T19:32:51.971Z,5.62
2019-02-24T19:35:24.756Z,5.56
2019-02-24T19:37:57.721Z,5.38
2019-02-24T19:40:30.449Z,5.14
2019-02-24T19:43:03.172Z,4.87
2019-02-24T19:45:36.142Z,4.95
2019-02-24T19:48:09.010Z,4.87
2019-02-24T19:50:41.789Z,5.10
2019-02-24T19:53:14.733Z,5.23
2019-02-24T19:55:47.447Z,5.50
2019-02-24T19:58:20.941Z,5.35
2019-02-24T20:00:55.462Z,5.50
2019-02-24T20:03:28.477Z,5.57
2019-02-24T20:06:01.254Z,5.84
2019-02-24T20:08:34.074Z,5.84
2019-02-24T20:11:07.039Z,5.94
2019-02-24T20:13:39.852Z,5.89
2019-02-24T20:16:12.858Z,5.94
2019-02-24T20:18:45.643Z,5.75
2019-02-24T20:21:18.381Z,5.61
2019-02-24T20:23:51.281Z,5.88
2019-02-24T20:26:24.457Z,5.97
2019-02-24T20:28:57.261Z,5.97
2019-02-24T20:31:30.019Z,5.98
2019-02-24T20:34:02.749Z,5.83
2019-02-24T20:36:35.404Z,5.78
2019-02-24T20:39:09.445Z,5.84
2019-02-24T20:41:42.122Z,5.89
2019-02-24T20:44:15.075Z,6.20
2019-02-24T20:46:47.728Z,6.40
2019-02-24T20:49:20.450Z,6.57
2019-02-24T20:51:53.230Z,6.41
2019-02-24T20:54:26.714Z,6.47
2019-02-24T20:56:59.623Z,6.56
2019-02-24T20:59:32.439Z,6.53
2019-02-24T21:02:05.158Z,6.67
2019-02-24T21:04:40.626Z,6.74
2019-02-24T21:07:13.310Z,6.62
2019-02-24T21:09:46.059Z,6.59
2019-02-24T21:12:18.713Z,6.49
2019-02-24T21:14:51.547Z,6.57
2019-02-24T21:17:24.315Z,6.55
2019-02-24T21:19:57.133Z,6.61
2019-02-24T21:22:30.037Z,6.63
2019-02-24T22:18:24.034Z,4.47
2019-02-24T22:20:56.377Z,4.54
2019-02-24T22:23:29.141Z,4.55
2019-02-24T22:26:01.885Z,4.41
2019-02-24T22:28:34.560Z,4.07
2019-02-24T22:31:07.358Z,3.89
2019-02-24T22:33:40.001Z,3.83
2019-02-24T22:36:13.770Z,3.76
2019-02-24T22:38:46.476Z,3.71
2019-02-24T22:41:19.241Z,3.83
2019-02-24T22:43:51.914Z,3.61
2019-02-24T22:46:24.755Z,3.38
2019-02-24T22:48:57.517Z,3.37
2019-02-24T22:51:30.262Z,3.01
2019-02-24T22:54:02.998Z,3.16
2019-02-24T22:56:35.721Z,3.23
2019-02-24T22:59:08.471Z,2.95
2019-02-24T23:01:42.627Z,2.48
2019-02-24T23:04:15.477Z,2.34
2019-02-24T23:06:48.148Z,2.31
2019-02-24T23:09:22.266Z,2.08
2019-02-24T23:11:55.077Z,1.87
2019-02-24T23:14:27.727Z,2.38
2019-02-24T23:17:00.469Z,2.26
2019-02-24T23:19:33.457Z,2.32
2019-02-24T23:22:10.006Z,2.22
2019-02-24T23:24:42.819Z,2.13
2019-02-24T23:27:15.512Z,2.07
2019-02-24T23:29:48.192Z,1.87
2019-02-24T23:32:20.928Z,1.89
2019-02-24T23:34:53.597Z,2.04
2019-02-24T23:37:26.414Z,1.92
2019-02-24T23:39:59.162Z,1.87
2019-02-24T23:42:31.936Z,2.33
2019-02-24T23:45:10.358Z,2.21
2019-02-24T23:47:39.380Z,2.08
2019-02-24T23:50:12.357Z,2.50
2019-02-24T23:52:45.111Z,2.05
2019-02-24T23:55:17.857Z,1.97
2019-02-24T23:57:50.580Z,1.82
